Terminal Aerodrome Forecast
Issued by NWS Tulsa, OK

Home | Current Version | Previous Version | Text Only | Print | Product List | Glossary On
Versions: 1 2 3 4 5 6 7 8 9 10 11 12
000
FTUS44 KTSA 041738
TAFFSM
TAF
KFSM 041738Z 0418/0518 08005KT P6SM VCSH BKN100 BKN200
     FM050100 06007KT P6SM VCTS SCT050CB OVC100
     FM050800 07008KT P6SM OVC100=

USA.gov is the U.S. government's official web portal to all federal, state and local government web resources and services.